createdAt,value
2023-05-23T00:02:39.492Z,2.80
2023-05-23T00:06:57.657Z,2.38
2023-05-23T00:11:15.704Z,2.25
2023-05-23T00:15:34.419Z,2.53
2023-05-23T00:19:52.030Z,2.33
2023-05-23T00:24:10.774Z,2.50
2023-05-23T00:28:30.125Z,2.63
2023-05-23T00:32:47.728Z,2.33
2023-05-23T00:37:05.934Z,2.20
2023-05-23T00:41:26.329Z,2.55
2023-05-23T00:45:43.912Z,2.38
2023-05-23T00:50:03.353Z,2.10
2023-05-23T00:54:33.476Z,2.08
2023-05-23T00:58:51.613Z,2.45
2023-05-23T01:07:28.594Z,2.22
2023-05-23T01:12:00.048Z,2.60
2023-05-23T01:16:38.779Z,2.40
2023-05-23T01:21:03.202Z,2.50
2023-05-23T01:26:14.549Z,2.65
2023-05-23T01:30:35.685Z,2.70
2023-05-23T01:34:54.594Z,2.08
2023-05-23T01:39:13.523Z,2.40
2023-05-23T01:43:31.231Z,2.13
2023-05-23T01:47:51.512Z,2.40
2023-05-23T01:52:12.751Z,2.60
2023-05-23T01:56:30.706Z,2.50
2023-05-23T02:00:48.874Z,2.85
2023-05-23T02:05:07.021Z,2.28
2023-05-23T02:13:43.025Z,2.50
2023-05-23T02:22:27.469Z,2.40
2023-05-23T02:26:46.260Z,2.53
2023-05-23T02:31:04.411Z,2.33
2023-05-23T02:35:22.556Z,2.35
2023-05-23T02:43:58.973Z,2.90
2023-05-23T02:48:17.648Z,2.47
2023-05-23T02:52:36.850Z,2.00
2023-05-23T02:56:55.088Z,3.08
2023-05-23T03:01:12.724Z,2.45
2023-05-23T03:05:30.262Z,2.40
2023-05-23T03:09:48.520Z,2.70
2023-05-23T03:14:06.942Z,2.67
2023-05-23T03:18:25.199Z,2.22
2023-05-23T03:22:45.951Z,2.42
2023-05-23T03:27:05.277Z,2.58
2023-05-23T03:31:23.428Z,2.42
2023-05-23T03:35:41.873Z,2.30
2023-05-23T03:39:59.586Z,2.60
2023-05-23T03:44:17.612Z,2.03
2023-05-23T03:52:54.639Z,2.33
2023-05-23T03:57:13.519Z,2.38
2023-05-23T04:01:31.957Z,2.33
2023-05-23T04:05:50.082Z,2.97
2023-05-23T04:14:27.744Z,2.85
2023-05-23T04:18:47.730Z,2.63
2023-05-23T04:23:05.705Z,2.35
2023-05-23T04:27:26.234Z,2.55
2023-05-23T04:31:46.928Z,2.80
2023-05-23T04:36:05.558Z,2.53
2023-05-23T04:40:25.802Z,2.20
2023-05-23T04:44:45.151Z,2.05
2023-05-23T04:49:04.283Z,2.38
2023-05-23T04:53:25.940Z,2.30
2023-05-23T04:57:43.769Z,2.20
2023-05-23T05:02:02.285Z,2.03
2023-05-23T05:06:21.449Z,2.60
2023-05-23T05:10:41.533Z,2.38
2023-05-23T05:14:59.707Z,2.05
2023-05-23T05:19:18.308Z,2.58
2023-05-23T05:27:54.203Z,1.88
2023-05-23T05:32:12.389Z,2.53
2023-05-23T05:40:48.213Z,2.17
2023-05-23T05:45:07.311Z,1.95
2023-05-23T05:49:24.860Z,2.13
2023-05-23T05:53:42.564Z,2.30
2023-05-23T05:58:01.530Z,2.20
2023-05-23T06:02:19.097Z,1.80
2023-05-23T06:06:38.045Z,1.98
2023-05-23T06:10:57.038Z,2.10
2023-05-23T06:15:16.701Z,2.28
2023-05-23T06:19:37.262Z,2.08
2023-05-23T06:23:54.895Z,2.63
2023-05-23T06:28:13.331Z,1.80
2023-05-23T06:32:30.993Z,1.60
2023-05-23T06:36:49.147Z,2.05
2023-05-23T06:41:07.470Z,2.15
2023-05-23T06:45:26.358Z,2.03
2023-05-23T06:49:44.439Z,1.98
2023-05-23T06:58:22.679Z,2.08
2023-05-23T07:02:42.035Z,2.15
2023-05-23T07:07:00.033Z,1.55
2023-05-23T07:11:18.727Z,2.33
2023-05-23T07:15:36.376Z,1.60
2023-05-23T07:24:12.002Z,2.22
2023-05-23T07:32:49.777Z,1.70
2023-05-23T07:41:26.580Z,2.08
2023-05-23T07:45:44.213Z,1.80
2023-05-23T07:50:07.717Z,1.50
2023-05-23T07:54:25.293Z,1.80
2023-05-23T07:58:43.406Z,1.85
2023-05-23T08:03:01.149Z,1.65
2023-05-23T08:07:19.749Z,1.77
2023-05-23T08:15:54.999Z,1.27
2023-05-23T08:20:14.066Z,1.63
2023-05-23T08:28:50.089Z,2.08
2023-05-23T08:33:08.230Z,1.85
2023-05-23T08:37:26.508Z,1.85
2023-05-23T08:41:44.529Z,1.90
2023-05-23T08:46:05.138Z,1.55
2023-05-23T08:50:23.631Z,1.67
2023-05-23T08:54:43.131Z,1.67
2023-05-23T08:59:01.531Z,1.45
2023-05-23T09:03:19.534Z,1.90
2023-05-23T09:07:38.005Z,1.48
2023-05-23T09:12:00.924Z,2.10
2023-05-23T09:16:20.568Z,1.85
2023-05-23T09:20:41.929Z,1.85
2023-05-23T09:25:01.415Z,1.77
2023-05-23T09:29:23.236Z,1.38
2023-05-23T09:33:48.281Z,1.42
2023-05-23T09:38:08.382Z,1.10
2023-05-23T09:42:26.901Z,2.03
2023-05-23T09:46:45.708Z,2.38
2023-05-23T09:51:09.951Z,1.77
2023-05-23T09:55:27.937Z,1.58
2023-05-23T09:59:55.704Z,1.52
2023-05-23T10:04:17.525Z,1.70
2023-05-23T10:08:43.768Z,1.77
2023-05-23T10:13:07.249Z,1.30
2023-05-23T10:17:35.033Z,1.98
2023-05-23T10:22:03.413Z,1.45
2023-05-23T10:26:22.995Z,1.27
2023-05-23T10:30:41.666Z,1.85
2023-05-23T10:35:11.673Z,2.40
2023-05-23T10:39:57.924Z,1.67
2023-05-23T10:44:31.611Z,1.80
2023-05-23T10:48:57.555Z,1.40
2023-05-23T10:53:17.365Z,1.30
2023-05-23T10:57:35.976Z,2.47
2023-05-23T11:01:54.187Z,1.40
2023-05-23T11:06:32.632Z,1.42
2023-05-23T11:11:03.010Z,1.77
2023-05-23T11:15:22.258Z,1.52
2023-05-23T11:19:40.669Z,1.58
2023-05-23T11:23:59.372Z,1.67
2023-05-23T11:28:18.317Z,1.40
2023-05-23T11:32:37.664Z,1.92
2023-05-23T11:36:57.437Z,1.80
2023-05-23T11:41:15.221Z,1.63
2023-05-23T11:45:34.826Z,1.20
2023-05-23T11:49:52.468Z,1.55
2023-05-23T11:54:11.104Z,1.52
2023-05-23T11:58:36.913Z,1.77
2023-05-23T12:02:55.044Z,1.50
2023-05-23T12:07:13.304Z,2.33
2023-05-23T12:11:36.573Z,1.67
2023-05-23T12:16:00.491Z,1.33
2023-05-23T12:20:20.092Z,1.90
2023-05-23T12:24:46.968Z,1.73
2023-05-23T12:29:06.417Z,1.08
2023-05-23T12:33:25.395Z,1.55
2023-05-23T12:37:49.957Z,1.73
2023-05-23T12:42:09.804Z,1.70
2023-05-23T12:46:28.530Z,1.45
2023-05-23T12:50:46.355Z,1.60
2023-05-23T12:55:06.430Z,1.42
2023-05-23T12:59:24.558Z,1.40
2023-05-23T13:03:42.826Z,1.42
2023-05-23T13:08:00.455Z,1.48
2023-05-23T13:12:18.917Z,1.63
2023-05-23T13:16:37.698Z,1.58
2023-05-23T13:20:55.629Z,1.40
2023-05-23T13:25:13.557Z,1.60
2023-05-23T13:29:31.665Z,1.60
2023-05-23T13:33:52.148Z,1.92
2023-05-23T13:38:10.037Z,1.88
2023-05-23T13:42:28.481Z,1.75
2023-05-23T13:46:46.835Z,1.65
2023-05-23T13:51:04.837Z,1.77
2023-05-23T13:55:23.243Z,2.70
2023-05-23T13:59:41.931Z,3.25
2023-05-23T14:03:59.496Z,3.05
2023-05-23T14:08:18.103Z,3.28
2023-05-23T14:12:36.149Z,3.35
2023-05-23T14:21:11.896Z,3.05
2023-05-23T14:25:32.062Z,2.53
2023-05-23T14:29:50.036Z,3.38
2023-05-23T14:34:08.978Z,2.95
2023-05-23T14:38:27.373Z,2.47
2023-05-23T14:42:47.108Z,3.00
2023-05-23T14:47:05.022Z,2.80
2023-05-23T14:56:00.876Z,2.85
2023-05-23T15:04:38.793Z,2.00
2023-05-23T15:08:57.019Z,2.78
2023-05-23T15:13:15.328Z,2.83
2023-05-23T15:17:34.969Z,2.78
2023-05-23T15:21:52.859Z,3.05
2023-05-23T15:26:11.383Z,4.38
2023-05-23T15:30:28.956Z,3.67
2023-05-23T15:34:46.945Z,4.18
2023-05-23T15:39:08.223Z,3.60
2023-05-23T15:43:26.811Z,3.65
2023-05-23T15:47:44.563Z,3.45
2023-05-23T15:56:20.267Z,2.80
2023-05-23T16:00:38.756Z,2.88
2023-05-23T16:04:58.347Z,3.15
2023-05-23T16:09:16.124Z,3.47
2023-05-23T16:13:34.732Z,4.28
2023-05-23T16:17:53.250Z,3.65
2023-05-23T16:22:11.547Z,3.67
2023-05-23T16:26:29.182Z,3.95
2023-05-23T16:30:49.750Z,4.07
2023-05-23T16:35:08.460Z,3.50
2023-05-23T16:39:27.360Z,3.80
2023-05-23T16:43:45.126Z,3.85
2023-05-23T16:48:03.634Z,3.80
2023-05-23T16:52:21.548Z,3.78
2023-05-23T16:56:40.746Z,3.38
2023-05-23T17:00:59.737Z,3.35
2023-05-23T17:05:17.408Z,4.07
2023-05-23T17:09:40.489Z,3.45
2023-05-23T17:13:58.644Z,3.42
2023-05-23T17:18:16.606Z,3.38
2023-05-23T17:22:34.909Z,3.55
2023-05-23T17:26:53.347Z,3.45
2023-05-23T17:31:12.319Z,3.58
2023-05-23T17:35:35.066Z,3.30
2023-05-23T17:39:55.254Z,3.83
2023-05-23T17:44:14.661Z,3.45
2023-05-23T17:53:07.107Z,4.32
2023-05-23T17:57:25.253Z,4.22
2023-05-23T18:01:44.048Z,3.78
2023-05-23T18:06:03.161Z,4.03
2023-05-23T18:10:21.891Z,4.70
2023-05-23T18:14:40.447Z,4.18
2023-05-23T18:19:00.238Z,3.85
2023-05-23T18:23:18.073Z,4.30
2023-05-23T18:27:36.580Z,5.20
2023-05-23T18:31:55.104Z,9.07
2023-05-23T18:36:13.347Z,6.60
2023-05-23T18:40:32.002Z,5.97
2023-05-23T18:44:51.076Z,5.80
2023-05-23T18:49:09.847Z,4.90
2023-05-23T18:53:28.378Z,6.60
2023-05-23T18:57:46.665Z,6.93
2023-05-23T19:02:05.265Z,6.30
2023-05-23T19:06:24.087Z,4.68
2023-05-23T19:10:42.784Z,4.95
2023-05-23T19:15:02.248Z,5.10
2023-05-23T19:19:21.414Z,4.47
2023-05-23T19:23:40.195Z,7.63
2023-05-23T19:27:58.005Z,6.20
2023-05-23T19:32:16.976Z,5.65
2023-05-23T19:36:37.236Z,5.75
2023-05-23T19:40:55.855Z,5.30
2023-05-23T19:45:15.108Z,4.63
2023-05-23T19:53:52.261Z,5.60
2023-05-23T19:58:12.008Z,5.28
2023-05-23T20:02:30.145Z,5.22
2023-05-23T20:06:48.068Z,5.25
2023-05-23T20:11:07.134Z,5.43
2023-05-23T20:15:38.612Z,4.82
2023-05-23T20:19:58.424Z,5.05
2023-05-23T20:24:16.448Z,5.45
2023-05-23T20:28:35.984Z,5.32
2023-05-23T20:32:55.461Z,5.75
2023-05-23T20:37:13.924Z,6.03
2023-05-23T20:41:34.025Z,6.53
2023-05-23T20:45:52.175Z,6.20
2023-05-23T20:50:11.374Z,5.03
2023-05-23T20:54:31.009Z,5.18
2023-05-23T20:58:49.764Z,5.35
2023-05-23T21:03:07.346Z,5.63
2023-05-23T21:07:25.373Z,4.97
2023-05-23T21:16:01.742Z,5.95
2023-05-23T21:20:22.083Z,5.40
2023-05-23T21:24:42.956Z,4.97
2023-05-23T21:29:01.022Z,5.07
2023-05-23T21:33:21.737Z,5.45
2023-05-23T21:37:39.359Z,5.55
2023-05-23T21:41:57.355Z,5.55
2023-05-23T21:46:17.008Z,4.22
2023-05-23T21:50:34.623Z,5.90
2023-05-23T21:54:53.199Z,5.63
2023-05-23T21:59:10.960Z,5.53
2023-05-23T22:03:29.151Z,5.50
2023-05-23T22:07:47.477Z,6.30
2023-05-23T22:12:05.681Z,5.53
2023-05-23T22:16:24.162Z,5.40
2023-05-23T22:20:42.068Z,5.88
2023-05-23T22:29:17.950Z,6.05
2023-05-23T22:33:36.737Z,5.80
2023-05-23T22:37:55.050Z,5.57
2023-05-23T22:42:12.646Z,6.32
2023-05-23T22:46:32.699Z,5.78
2023-05-23T22:50:54.331Z,6.45
2023-05-23T22:55:12.503Z,5.70
2023-05-23T22:59:31.092Z,6.03
2023-05-23T23:03:49.191Z,6.20
2023-05-23T23:08:07.106Z,6.35
2023-05-23T23:12:24.658Z,5.57
2023-05-23T23:21:01.300Z,6.43
2023-05-23T23:25:19.322Z,6.05
2023-05-23T23:33:55.196Z,6.75
2023-05-23T23:38:12.800Z,6.25
2023-05-23T23:42:31.543Z,5.85
2023-05-23T23:46:49.834Z,5.60
2023-05-23T23:51:07.945Z,5.97
2023-05-23T23:55:26.432Z,6.78
2023-05-23T23:59:46.536Z,6.72
